Time;durP1;ratioP1;P1;durP2;ratioP2;P2;SDS_P1;SDS_P2;PMS_P1;PMS_P2;Temp;Humidity;BMP_temperature;BMP_pressure;BME280_temperature;BME280_humidity;BME280_pressure;Samples;Min_cycle;Max_cycle;Signal;HPM_P1;HPM_P2
2021/06/01 00:00:07;;;;;;;1.57;1.47;;;31.30;39.30;;;;;;5130969;27;20964;-33
2021/06/01 00:02:39;;;;;;;1.77;1.63;;;31.30;38.20;;;;;;5126702;27;20521;-33
2021/06/01 00:05:11;;;;;;;1.60;1.50;;;31.20;39.50;;;;;;5126987;27;20483;-33
2021/06/01 00:07:41;;;;;;;3.27;2.67;;;31.20;40.00;;;;;;5123809;27;20468;-33
2021/06/01 00:10:13;;;;;;;2.33;2.13;;;31.20;40.00;;;;;;5125837;27;20466;-33
2021/06/01 00:12:44;;;;;;;2.30;1.97;;;31.20;40.50;;;;;;5111068;27;20452;-33
2021/06/01 00:15:15;;;;;;;2.63;1.97;;;31.10;40.20;;;;;;5113957;27;20502;-33
2021/06/01 00:17:47;;;;;;;1.77;1.60;;;31.10;39.90;;;;;;5111880;27;20462;-33
2021/06/01 00:20:18;;;;;;;1.67;1.57;;;31.00;38.70;;;;;;5129558;27;20471;-33
2021/06/01 00:22:48;;;;;;;2.27;1.93;;;31.00;39.10;;;;;;5139778;27;20488;-33
2021/06/01 00:25:19;;;;;;;3.23;1.73;;;31.00;39.30;;;;;;5115568;27;20512;-33
2021/06/01 00:27:50;;;;;;;2.10;2.00;;;30.90;39.80;;;;;;5121176;27;20549;-33
2021/06/01 00:30:21;;;;;;;2.47;2.27;;;30.70;40.90;;;;;;5141512;27;20493;-33
2021/06/01 00:32:53;;;;;;;2.70;2.50;;;30.50;41.10;;;;;;5143439;27;20450;-33
2021/06/01 00:35:24;;;;;;;8.10;6.43;;;30.40;42.40;;;;;;5134376;27;20494;-33
2021/06/01 00:37:55;;;;;;;4.23;2.50;;;30.50;41.70;;;;;;5114227;27;20446;-33
2021/06/01 00:40:25;;;;;;;2.40;2.13;;;30.40;42.60;;;;;;5125261;27;20439;-33
2021/06/01 00:42:56;;;;;;;2.30;2.20;;;30.40;42.60;;;;;;5128334;27;20486;-33
2021/06/01 00:45:27;;;;;;;2.40;2.20;;;30.20;43.50;;;;;;5145179;27;20496;-33
2021/06/01 00:47:59;;;;;;;3.00;2.80;;;30.10;43.80;;;;;;5130418;27;20947;-33
2021/06/01 00:50:31;;;;;;;2.90;2.47;;;29.90;44.30;;;;;;5136391;27;20510;-33
2021/06/01 00:53:01;;;;;;;3.10;2.90;;;29.70;45.20;;;;;;5130829;27;20462;-33
2021/06/01 00:55:32;;;;;;;3.30;3.10;;;29.70;45.30;;;;;;5135878;27;20479;-33
2021/06/01 00:58:02;;;;;;;6.50;2.37;;;29.70;44.60;;;;;;5125192;27;20468;-33
2021/06/01 01:00:51;;;;;;;2.80;2.60;;;29.60;45.00;;;;;;5127203;27;20580;-33
2021/06/01 01:03:23;;;;;;;3.20;2.00;;;29.50;45.60;;;;;;5139836;27;20548;-33
2021/06/01 01:06:02;;;;;;;1.90;1.80;;;29.40;45.20;;;;;;5138759;27;20459;-34
2021/06/01 01:08:46;;;;;;;2.03;1.80;;;29.40;44.90;;;;;;5132667;27;20478;-33
2021/06/01 01:11:25;;;;;;;2.80;2.40;;;29.30;45.20;;;;;;5137879;27;20913;-33
2021/06/01 01:13:59;;;;;;;2.30;2.13;;;29.30;45.60;;;;;;5144672;27;20473;-33
2021/06/01 01:16:32;;;;;;;2.93;2.63;;;29.30;45.10;;;;;;5145032;27;20445;-33
2021/06/01 01:19:12;;;;;;;2.70;2.50;;;29.10;45.80;;;;;;5144249;27;20481;-34
2021/06/01 01:21:49;;;;;;;4.50;4.20;;;29.10;46.70;;;;;;5132532;27;20452;-33
2021/06/01 01:24:34;;;;;;;5.33;5.00;;;29.00;46.70;;;;;;5136896;27;20506;-33
2021/06/01 01:27:15;;;;;;;3.10;2.87;;;29.00;47.10;;;;;;5120001;27;20525;-33
2021/06/01 01:30:09;;;;;;;3.13;3.00;;;28.90;47.00;;;;;;5138191;27;20491;-33
2021/06/01 01:32:49;;;;;;;3.00;2.80;;;28.90;47.40;;;;;;5137058;27;20459;-33
2021/06/01 01:35:23;;;;;;;3.20;3.00;;;28.90;47.60;;;;;;5144924;27;20462;-33
2021/06/01 01:37:55;;;;;;;4.07;3.77;;;28.80;47.90;;;;;;5123287;27;20461;-33
2021/06/01 01:40:26;;;;;;;2.77;2.57;;;28.80;48.10;;;;;;5144149;27;20447;-33
2021/06/01 01:43:02;;;;;;;3.40;3.20;;;28.70;48.70;;;;;;5139886;27;20492;-33
2021/06/01 01:45:34;;;;;;;2.77;2.57;;;28.70;48.70;;;;;;5138884;27;20460;-33
2021/06/01 01:51:12;;;;;;;2.70;2.50;;;28.60;48.60;;;;;;5123582;28;20473;-33
2021/06/01 01:53:50;;;;;;;2.60;2.40;;;28.60;48.70;;;;;;5139630;27;20443;-33
2021/06/01 01:56:22;;;;;;;4.43;4.20;;;28.60;48.00;;;;;;5134219;27;20499;-33
2021/06/01 01:58:54;;;;;;;4.13;3.03;;;28.50;47.90;;;;;;5144153;27;20475;-33
2021/06/01 02:01:25;;;;;;;2.40;2.20;;;28.50;48.00;;;;;;5143749;27;20461;-33
2021/06/01 02:03:56;;;;;;;3.37;2.30;;;28.50;48.60;;;;;;5133049;27;20484;-34
2021/06/01 02:06:28;;;;;;;2.30;2.17;;;28.50;48.50;;;;;;5123619;28;20821;-33
2021/06/01 02:08:59;;;;;;;5.57;3.00;;;28.50;49.20;;;;;;5132275;27;20451;-33
2021/06/01 02:11:29;;;;;;;2.30;2.20;;;28.50;49.20;;;;;;5143811;27;20463;-33
2021/06/01 02:14:02;;;;;;;2.30;2.10;;;28.40;48.70;;;;;;5123543;27;20483;-33
2021/06/01 02:16:33;;;;;;;3.70;2.37;;;28.30;49.20;;;;;;5122751;27;20456;-33
2021/06/01 02:19:05;;;;;;;2.43;2.23;;;28.30;49.30;;;;;;5124710;27;20446;-33
2021/06/01 02:22:00;;;;;;;1.80;1.70;;;28.30;49.40;;;;;;5123926;27;20447;-33
2021/06/01 02:24:32;;;;;;;1.93;1.83;;;28.20;49.70;;;;;;5139521;27;20515;-33
2021/06/01 02:27:12;;;;;;;1.80;1.70;;;28.10;49.70;;;;;;5121017;28;20964;-33
2021/06/01 02:29:47;;;;;;;1.80;1.70;;;28.00;50.60;;;;;;5123795;28;20734;-33
2021/06/01 02:32:19;;;;;;;2.07;1.87;;;28.00;50.60;;;;;;5122601;28;20504;-33
2021/06/01 02:34:51;;;;;;;2.30;2.10;;;27.90;51.10;;;;;;5121543;28;20442;-33
2021/06/01 02:37:23;;;;;;;1.73;1.63;;;27.80;52.20;;;;;;5119980;27;20448;-34
2021/06/01 02:39:55;;;;;;;2.80;1.93;;;27.70;51.60;;;;;;5123546;28;20504;-33
2021/06/01 02:42:26;;;;;;;2.13;2.03;;;27.70;51.70;;;;;;5124012;28;20473;-33
2021/06/01 02:44:58;;;;;;;2.00;1.90;;;27.60;51.60;;;;;;5121521;28;20467;-33
2021/06/01 02:47:29;;;;;;;2.23;1.90;;;27.50;51.60;;;;;;5123009;28;20460;-33
2021/06/01 02:50:02;;;;;;;2.20;2.00;;;27.50;51.30;;;;;;5123011;28;20447;-33
2021/06/01 02:52:36;;;;;;;1.67;1.57;;;27.40;52.10;;;;;;5115046;28;20449;-33
2021/06/01 02:55:09;;;;;;;1.90;1.80;;;27.40;51.90;;;;;;5130266;27;20494;-32
2021/06/01 02:57:40;;;;;;;1.70;1.60;;;27.30;51.80;;;;;;5129791;28;20430;-33
2021/06/01 03:00:14;;;;;;;2.13;1.60;;;27.30;51.70;;;;;;5131834;27;20475;-33
2021/06/01 03:02:45;;;;;;;1.90;1.80;;;27.20;52.20;;;;;;5126361;28;20447;-33
2021/06/01 03:05:17;;;;;;;1.97;1.60;;;27.10;52.10;;;;;;5129930;27;20449;-33
2021/06/01 03:07:55;;;;;;;2.00;1.90;;;27.00;53.10;;;;;;5133444;28;20575;-33
2021/06/01 03:10:26;;;;;;;1.90;1.80;;;26.90;52.90;;;;;;5132734;28;20439;-32
2021/06/01 03:13:00;;;;;;;3.17;1.57;;;26.90;52.90;;;;;;5126498;28;20960;-32
2021/06/01 03:15:30;;;;;;;1.77;1.67;;;26.80;53.20;;;;;;5136541;28;20432;-33
2021/06/01 03:18:01;;;;;;;2.07;1.60;;;26.70;53.30;;;;;;5138375;28;20507;-33
2021/06/01 03:20:31;;;;;;;1.80;1.70;;;26.60;53.60;;;;;;5129404;27;20457;-33
2021/06/01 03:23:04;;;;;;;2.30;1.80;;;26.60;54.20;;;;;;5122920;28;20441;-33
2021/06/01 03:25:34;;;;;;;1.90;1.80;;;26.50;54.30;;;;;;5129040;28;20456;-33
2021/06/01 03:28:05;;;;;;;1.80;1.70;;;26.40;54.20;;;;;;5135415;27;20442;-32
2021/06/01 03:30:36;;;;;;;3.10;1.57;;;26.40;53.80;;;;;;5128144;27;20477;-33
2021/06/01 03:33:09;;;;;;;1.90;1.80;;;26.30;54.30;;;;;;5127195;27;20458;-33
2021/06/01 03:35:40;;;;;;;2.00;1.90;;;26.20;54.10;;;;;;5128535;27;20560;-33
2021/06/01 03:38:12;;;;;;;2.60;1.70;;;26.10;54.20;;;;;;5132659;27;20452;-32
2021/06/01 03:40:43;;;;;;;1.53;1.43;;;26.10;54.60;;;;;;5132287;27;20449;-32
2021/06/01 03:43:14;;;;;;;1.90;1.73;;;26.00;54.40;;;;;;5127548;27;20497;-33
2021/06/01 03:45:44;;;;;;;2.00;1.60;;;25.80;54.80;;;;;;5128600;27;20444;-33
2021/06/01 03:48:15;;;;;;;1.97;1.87;;;25.80;55.10;;;;;;5146840;27;20444;-32
2021/06/01 03:50:45;;;;;;;1.80;1.70;;;25.70;55.20;;;;;;5133154;27;20449;-32
2021/06/01 03:53:17;;;;;;;1.73;1.63;;;25.70;55.20;;;;;;5125400;27;20442;-32
2021/06/01 03:55:48;;;;;;;2.63;2.33;;;25.70;55.10;;;;;;5137371;27;20437;-32
2021/06/01 03:58:18;;;;;;;1.87;1.77;;;25.60;55.30;;;;;;5144586;27;20449;-32
2021/06/01 04:00:50;;;;;;;1.90;1.80;;;25.40;55.70;;;;;;5125963;27;20475;-33
2021/06/01 04:03:20;;;;;;;1.90;1.70;;;25.40;56.20;;;;;;5125301;27;20552;-32
2021/06/01 04:05:51;;;;;;;2.07;1.73;;;25.30;56.00;;;;;;5125983;27;20465;-32
2021/06/01 04:08:23;;;;;;;1.97;1.87;;;25.30;55.90;;;;;;5126188;27;20441;-32
2021/06/01 04:10:53;;;;;;;2.53;1.87;;;25.20;56.20;;;;;;5133098;27;20498;-32
2021/06/01 04:13:24;;;;;;;2.00;1.90;;;25.00;56.70;;;;;;5128048;27;20556;-32
2021/06/01 04:15:54;;;;;;;1.80;1.70;;;25.00;57.40;;;;;;5129667;27;20453;-33
2021/06/01 04:18:25;;;;;;;3.23;2.10;;;25.00;56.50;;;;;;5139836;27;20492;-32
2021/06/01 04:20:55;;;;;;;2.30;2.07;;;24.90;57.30;;;;;;5129132;27;20465;-32
2021/06/01 04:23:27;;;;;;;3.50;2.30;;;24.90;57.30;;;;;;5125177;27;20475;-32
2021/06/01 04:25:58;;;;;;;2.53;2.33;;;24.80;57.70;;;;;;5125247;28;20445;-31
2021/06/01 04:28:28;;;;;;;2.40;2.23;;;24.70;58.10;;;;;;5122471;28;20434;-32
2021/06/01 04:30:59;;;;;;;2.80;2.60;;;24.60;58.20;;;;;;5127888;27;20505;-32
2021/06/01 04:33:34;;;;;;;2.43;2.23;;;24.50;58.20;;;;;;5134029;27;20438;-32
2021/06/01 04:36:05;;;;;;;2.47;2.37;;;24.50;58.10;;;;;;5128872;27;20449;-32
2021/06/01 04:38:37;;;;;;;2.80;2.60;;;24.50;58.00;;;;;;5113473;27;20480;-32
2021/06/01 04:41:08;;;;;;;2.60;2.37;;;24.50;58.70;;;;;;5129694;27;20445;-32
2021/06/01 04:43:40;;;;;;;2.27;2.17;;;24.40;58.90;;;;;;5125256;27;20566;-32
2021/06/01 04:46:10;;;;;;;2.57;2.37;;;24.30;59.20;;;;;;5114976;28;20453;-33
2021/06/01 04:48:41;;;;;;;3.07;2.50;;;24.30;59.70;;;;;;5130867;27;20463;-32
2021/06/01 04:51:17;;;;;;;3.57;2.50;;;24.20;61.00;;;;;;5127261;27;20521;-32
2021/06/01 04:53:50;;;;;;;2.93;2.60;;;24.10;61.10;;;;;;5126726;27;20548;-32
2021/06/01 04:56:21;;;;;;;2.90;2.70;;;24.10;62.20;;;;;;5138790;27;20925;-32
2021/06/01 04:58:55;;;;;;;2.90;2.70;;;24.10;63.10;;;;;;5128373;27;20439;-32
2021/06/01 05:01:27;;;;;;;3.20;3.00;;;24.00;63.60;;;;;;5132631;27;20446;-32
2021/06/01 05:03:57;;;;;;;2.90;2.60;;;24.00;63.90;;;;;;5124479;28;20789;-32
2021/06/01 05:06:28;;;;;;;3.73;3.20;;;23.90;65.00;;;;;;5124499;28;20521;-32
2021/06/01 05:09:00;;;;;;;3.17;2.87;;;23.90;64.70;;;;;;5125712;27;20479;-32
2021/06/01 05:11:30;;;;;;;2.90;2.70;;;23.90;66.00;;;;;;5132252;27;20441;-32
2021/06/01 05:14:01;;;;;;;3.10;2.90;;;23.80;66.00;;;;;;5140376;27;20563;-32
2021/06/01 05:16:32;;;;;;;3.23;3.03;;;23.70;66.10;;;;;;5143364;27;20468;-32
2021/06/01 05:19:02;;;;;;;3.10;2.90;;;23.70;66.60;;;;;;5138869;27;20553;-32
2021/06/01 05:21:33;;;;;;;2.87;2.67;;;23.70;67.00;;;;;;5126730;27;20461;-32
2021/06/01 05:24:06;;;;;;;3.07;2.87;;;23.60;67.60;;;;;;5142161;27;20471;-32
2021/06/01 05:26:37;;;;;;;3.33;2.87;;;23.60;67.10;;;;;;5142273;27;20502;-32
2021/06/01 05:29:07;;;;;;;2.90;2.70;;;23.60;66.90;;;;;;5124991;27;20452;-32
2021/06/01 05:31:45;;;;;;;2.93;2.73;;;23.60;67.10;;;;;;5119864;27;20450;-32
2021/06/01 05:34:22;;;;;;;3.20;2.90;;;23.50;67.30;;;;;;5108814;27;20525;-32
2021/06/01 05:36:53;;;;;;;3.33;2.70;;;23.50;67.50;;;;;;5119417;27;20449;-31
2021/06/01 05:39:25;;;;;;;2.77;2.57;;;23.40;68.00;;;;;;5121333;28;20446;-32
2021/06/01 05:42:15;;;;;;;3.00;2.80;;;23.40;67.80;;;;;;5125720;27;20438;-32
2021/06/01 05:44:47;;;;;;;3.00;2.80;;;23.30;67.90;;;;;;5129090;27;21285;-33
2021/06/01 05:47:18;;;;;;;3.53;3.23;;;23.20;68.20;;;;;;5123959;28;20453;-32
2021/06/01 05:49:48;;;;;;;2.90;2.70;;;23.20;67.80;;;;;;5140308;27;20506;-32
2021/06/01 05:52:19;;;;;;;3.13;2.93;;;23.20;67.90;;;;;;5124452;27;20421;-32
2021/06/01 05:54:51;;;;;;;3.90;2.63;;;23.20;66.90;;;;;;5135343;27;20452;-32
2021/06/01 05:57:21;;;;;;;3.00;2.80;;;23.20;67.00;;;;;;5136096;27;20413;-32
2021/06/01 05:59:52;;;;;;;2.77;2.60;;;23.10;67.60;;;;;;5125039;27;20441;-32
2021/06/01 06:02:22;;;;;;;2.73;2.53;;;23.10;67.40;;;;;;5127049;27;20495;-32
2021/06/01 06:04:53;;;;;;;2.77;2.57;;;23.00;66.90;;;;;;5133900;27;20502;-33
2021/06/01 06:07:23;;;;;;;2.53;2.33;;;22.90;67.70;;;;;;5124786;27;20440;-32
2021/06/01 06:09:55;;;;;;;2.73;2.63;;;22.90;68.00;;;;;;5135717;27;20452;-32
2021/06/01 06:12:26;;;;;;;3.03;2.50;;;22.80;67.50;;;;;;5135732;27;20438;-32
2021/06/01 06:14:56;;;;;;;2.90;2.70;;;22.80;67.20;;;;;;5127889;27;20446;-32
2021/06/01 06:17:32;;;;;;;2.77;2.57;;;22.70;67.70;;;;;;5123389;28;20453;-32
2021/06/01 06:20:03;;;;;;;2.67;2.47;;;22.70;67.70;;;;;;5136316;27;20435;-32
2021/06/01 06:22:33;;;;;;;2.43;2.23;;;22.70;67.60;;;;;;5127518;27;20460;-32
2021/06/01 06:25:06;;;;;;;3.17;2.73;;;22.70;67.10;;;;;;5138083;27;20484;-32
2021/06/01 06:27:37;;;;;;;2.70;2.50;;;22.60;66.90;;;;;;5136778;27;20469;-32
2021/06/01 06:30:10;;;;;;;2.57;2.37;;;22.60;66.80;;;;;;5137209;27;20479;-32
2021/06/01 06:32:40;;;;;;;2.70;2.50;;;22.60;66.70;;;;;;5140211;27;20563;-32
2021/06/01 06:35:12;;;;;;;2.70;2.50;;;22.60;66.20;;;;;;5141752;27;20459;-32
2021/06/01 06:37:42;;;;;;;2.60;2.40;;;22.60;66.40;;;;;;5133721;27;20484;-32
2021/06/01 06:40:18;;;;;;;2.70;2.50;;;22.60;66.70;;;;;;5127152;28;20439;-32
2021/06/01 06:42:50;;;;;;;2.73;2.53;;;22.50;66.60;;;;;;5123694;28;20484;-32
2021/06/01 06:45:23;;;;;;;2.70;2.33;;;22.40;67.40;;;;;;5128767;28;20596;-33
2021/06/01 06:48:05;;;;;;;2.43;2.00;;;22.40;67.30;;;;;;5143500;28;20444;-32
2021/06/01 06:50:35;;;;;;;3.00;2.80;;;22.40;67.40;;;;;;5123902;28;20445;-32
2021/06/01 06:53:07;;;;;;;2.70;2.53;;;22.30;68.20;;;;;;5123338;28;21064;-32
2021/06/01 06:55:39;;;;;;;2.83;2.63;;;22.20;68.00;;;;;;5130265;27;20442;-32
2021/06/01 06:58:09;;;;;;;2.30;2.20;;;22.10;68.60;;;;;;5125055;28;20439;-32
2021/06/01 07:00:40;;;;;;;3.30;2.33;;;22.10;69.30;;;;;;5134294;28;20545;-32
2021/06/01 07:03:10;;;;;;;2.60;2.40;;;22.10;69.30;;;;;;5119713;27;20441;-32
2021/06/01 07:05:41;;;;;;;2.27;2.17;;;22.00;69.70;;;;;;5131605;27;20498;-32
2021/06/01 07:08:11;;;;;;;2.30;2.20;;;21.90;70.40;;;;;;5124488;27;20423;-33
2021/06/01 07:10:43;;;;;;;2.63;2.40;;;21.80;70.80;;;;;;5139524;27;20445;-32
2021/06/01 07:13:21;;;;;;;2.67;2.47;;;21.80;71.70;;;;;;5147763;27;20437;-32
2021/06/01 07:15:54;;;;;;;2.53;2.33;;;21.70;71.50;;;;;;5135448;27;20437;-32
2021/06/01 07:18:24;;;;;;;3.00;2.70;;;21.70;71.20;;;;;;5143463;27;20797;-33
2021/06/01 07:20:57;;;;;;;2.73;2.30;;;21.70;71.20;;;;;;5138914;27;20425;-32
2021/06/01 07:23:28;;;;;;;2.97;2.77;;;21.60;72.30;;;;;;5127259;27;20992;-32
2021/06/01 07:26:00;;;;;;;2.70;2.50;;;21.60;72.40;;;;;;5133544;27;20456;-32
2021/06/01 07:28:31;;;;;;;2.20;2.10;;;21.50;72.10;;;;;;5141292;27;20453;-32
2021/06/01 07:31:02;;;;;;;2.47;2.33;;;21.50;73.00;;;;;;5131455;27;20469;-32
2021/06/01 07:33:33;;;;;;;2.90;2.63;;;21.40;73.30;;;;;;5126939;27;20475;-32
2021/06/01 07:36:04;;;;;;;2.50;2.30;;;21.40;73.50;;;;;;5137666;27;20446;-32
2021/06/01 07:38:36;;;;;;;2.23;2.03;;;21.50;72.90;;;;;;5131919;27;20416;-32
2021/06/01 07:41:08;;;;;;;2.50;2.40;;;21.40;73.70;;;;;;5135466;27;20442;-31
2021/06/01 07:43:39;;;;;;;4.07;2.50;;;21.30;74.60;;;;;;5116574;28;20477;-32
2021/06/01 07:46:14;;;;;;;2.77;2.57;;;21.20;75.30;;;;;;5129735;27;20482;-32
2021/06/01 07:48:45;;;;;;;2.50;2.40;;;21.20;75.50;;;;;;5145579;27;20458;-32
2021/06/01 07:51:27;;;;;;;2.50;2.30;;;21.20;76.10;;;;;;5125789;28;20420;-32
2021/06/01 07:53:59;;;;;;;2.50;1.90;;;21.10;76.30;;;;;;5130098;27;20420;-32
2021/06/01 07:56:32;;;;;;;2.40;2.20;;;21.00;76.70;;;;;;5135129;27;20435;-32
2021/06/01 07:59:02;;;;;;;2.50;2.30;;;21.00;77.40;;;;;;5114027;27;21012;-32
2021/06/01 08:01:33;;;;;;;2.80;2.60;;;21.00;77.70;;;;;;5127439;27;20419;-32
2021/06/01 08:04:04;;;;;;;2.40;2.13;;;21.00;77.20;;;;;;5144701;27;20449;-32
2021/06/01 08:06:36;;;;;;;2.70;2.50;;;21.00;77.60;;;;;;5138225;27;20487;-32
2021/06/01 08:09:08;;;;;;;2.07;1.97;;;21.00;77.60;;;;;;5136098;27;20424;-31
2021/06/01 08:11:40;;;;;;;4.30;2.33;;;20.90;78.50;;;;;;5146141;27;20487;-32
2021/06/01 08:14:11;;;;;;;2.70;2.50;;;20.80;78.90;;;;;;5145885;27;20415;-32
2021/06/01 08:16:44;;;;;;;2.57;2.37;;;20.80;79.30;;;;;;5139808;27;20428;-32
2021/06/01 08:19:17;;;;;;;2.10;2.00;;;20.70;80.60;;;;;;5125950;28;20442;-32
2021/06/01 08:21:53;;;;;;;2.43;2.23;;;20.60;81.70;;;;;;5126392;27;20500;-32
2021/06/01 08:24:24;;;;;;;2.90;2.10;;;20.50;81.90;;;;;;5137456;27;20416;-32
2021/06/01 08:26:56;;;;;;;2.43;2.30;;;20.40;83.00;;;;;;5126036;27;20477;-32
2021/06/01 08:29:27;;;;;;;2.60;2.40;;;20.40;83.70;;;;;;5137310;27;20420;-32
2021/06/01 08:31:57;;;;;;;2.23;2.13;;;20.30;84.40;;;;;;5139152;27;20421;-32
2021/06/01 08:34:29;;;;;;;2.87;2.47;;;20.20;85.50;;;;;;5134752;27;20439;-32
2021/06/01 08:36:59;;;;;;;2.80;2.50;;;20.20;87.70;;;;;;5141546;27;20429;-32
2021/06/01 08:39:29;;;;;;;4.10;2.57;;;20.10;87.40;;;;;;5143237;27;20453;-32
2021/06/01 08:42:03;;;;;;;2.73;2.13;;;20.10;88.50;;;;;;5144075;27;20500;-32
2021/06/01 08:44:33;;;;;;;3.50;2.23;;;20.00;89.60;;;;;;5145586;27;20739;-32
2021/06/01 08:47:07;;;;;;;2.73;2.53;;;19.90;89.10;;;;;;5143123;27;20424;-32
2021/06/01 08:49:38;;;;;;;2.20;2.10;;;19.90;90.40;;;;;;5145186;27;20448;-32
2021/06/01 08:52:09;;;;;;;2.60;2.40;;;19.80;90.60;;;;;;5128430;27;20447;-31
2021/06/01 08:54:40;;;;;;;2.27;2.17;;;19.70;91.20;;;;;;5134987;27;20445;-32
2021/06/01 08:57:12;;;;;;;2.27;2.17;;;19.70;91.60;;;;;;5137542;27;20456;-31
2021/06/01 08:59:43;;;;;;;2.07;1.87;;;19.70;92.00;;;;;;5126169;27;20449;-32
2021/06/01 09:02:19;;;;;;;1.97;1.87;;;19.60;92.60;;;;;;5134335;27;20432;-32
2021/06/01 09:04:54;;;;;;;2.67;2.40;;;19.60;92.90;;;;;;5124658;28;20453;-32
2021/06/01 09:07:39;;;;;;;2.23;2.13;;;19.60;92.90;;;;;;5129785;27;20448;-32
2021/06/01 09:10:28;;;;;;;2.53;2.43;;;19.50;93.50;;;;;;5137703;27;20449;-32
2021/06/01 09:21:46;;;;;;;2.60;2.40;;;19.30;95.20;;;;;;5125861;27;20489;-32
2021/06/01 09:24:17;;;;;;;2.30;2.20;;;19.30;95.60;;;;;;5134755;27;20430;-32
2021/06/01 09:27:05;;;;;;;2.87;2.57;;;19.30;95.80;;;;;;5125359;27;20499;-32
2021/06/01 09:29:37;;;;;;;2.60;2.13;;;19.20;96.30;;;;;;5132006;27;20421;-32
2021/06/01 09:32:12;;;;;;;2.87;2.67;;;19.20;96.60;;;;;;5125458;27;20449;-31
2021/06/01 09:34:45;;;;;;;2.70;2.50;;;19.10;97.10;;;;;;5124635;27;20888;-31
2021/06/01 09:37:24;;;;;;;2.43;2.33;;;19.20;98.40;;;;;;5138947;27;20497;-32
2021/06/01 09:40:12;;;;;;;3.40;2.50;;;19.10;97.50;;;;;;5135494;27;20436;-32
2021/06/01 09:42:45;;;;;;;2.60;2.40;;;19.00;99.20;;;;;;5132403;27;20476;-31
2021/06/01 09:45:19;;;;;;;2.80;2.60;;;19.00;99.40;;;;;;5142226;27;20468;-32
2021/06/01 09:47:52;;;;;;;2.47;2.37;;;18.90;99.70;;;;;;5125628;27;20457;-32
2021/06/01 09:50:32;;;;;;;2.63;2.33;;;18.90;99.90;;;;;;5132215;27;20815;-32
2021/06/01 09:53:06;;;;;;;2.87;2.60;;;18.80;99.90;;;;;;5137008;27;20448;-31
2021/06/01 09:55:44;;;;;;;3.40;2.30;;;18.70;99.90;;;;;;5144153;27;20535;-32
2021/06/01 09:58:16;;;;;;;2.50;2.30;;;18.60;99.90;;;;;;5142422;27;20450;-31
2021/06/01 10:00:49;;;;;;;2.53;2.43;;;18.60;99.90;;;;;;5128691;27;20419;-32
2021/06/01 10:03:20;;;;;;;2.40;2.30;;;18.60;99.90;;;;;;5126631;27;20446;-31
2021/06/01 10:05:54;;;;;;;2.97;2.73;;;18.60;99.90;;;;;;5124758;27;20541;-32
2021/06/01 10:08:26;;;;;;;2.67;2.47;;;18.50;99.90;;;;;;5124022;27;20855;-32
2021/06/01 10:10:58;;;;;;;2.73;2.57;;;18.40;99.90;;;;;;5130171;27;20449;-32
2021/06/01 10:13:31;;;;;;;4.17;2.80;;;18.50;99.90;;;;;;5138874;27;20513;-32
2021/06/01 10:16:05;;;;;;;3.27;2.63;;;18.40;99.90;;;;;;5125022;27;20446;-31
2021/06/01 10:18:36;;;;;;;3.00;2.70;;;18.30;99.90;;;;;;5124027;28;20442;-31
2021/06/01 10:21:09;;;;;;;2.87;2.60;;;18.30;99.90;;;;;;5138762;27;20449;-31
2021/06/01 10:23:41;;;;;;;3.03;2.73;;;18.30;99.90;;;;;;5124160;27;20477;-32
2021/06/01 10:26:13;;;;;;;2.90;2.70;;;18.30;99.90;;;;;;5130459;27;20933;-32
2021/06/01 10:28:46;;;;;;;2.33;2.23;;;18.20;99.90;;;;;;5126663;27;20478;-32
2021/06/01 10:31:39;;;;;;;3.13;2.93;;;18.10;99.90;;;;;;5113913;28;20427;-32
2021/06/01 10:34:14;;;;;;;3.50;3.20;;;18.10;99.90;;;;;;5127769;27;20962;-31
2021/06/01 10:51:26;;;;;;;3.03;2.83;;;17.70;99.90;;;;;;5106808;28;20472;-31
2021/06/01 10:53:57;;;;;;;3.00;2.80;;;17.70;99.90;;;;;;5123592;28;20566;-32
2021/06/01 10:56:27;;;;;;;5.50;2.90;;;17.70;99.90;;;;;;5123191;28;20958;-31
2021/06/01 11:02:11;;;;;;;3.13;2.93;;;17.60;99.90;;;;;;5108609;28;20584;-31
2021/06/01 11:05:02;;;;;;;2.33;2.23;;;17.60;99.90;;;;;;5119411;28;20469;-31
2021/06/01 11:07:57;;;;;;;3.03;2.83;;;17.40;99.90;;;;;;5114264;28;20475;-32
2021/06/01 11:10:41;;;;;;;2.97;2.77;;;17.40;99.90;;;;;;5141357;28;20449;-32
2021/06/01 11:13:12;;;;;;;2.90;2.70;;;17.30;99.90;;;;;;5131396;27;20448;-32
2021/06/01 11:15:43;;;;;;;3.43;3.23;;;17.30;99.90;;;;;;5135283;28;20493;-32
2021/06/01 11:18:24;;;;;;;3.30;3.10;;;17.20;99.90;;;;;;5141402;28;20449;-31
2021/06/01 11:21:10;;;;;;;3.80;3.43;;;17.20;99.90;;;;;;5118912;28;20440;-31
2021/06/01 11:33:01;;;;;;;2.73;2.53;;;16.90;99.90;;;;;;5042054;28;20453;-40
2021/06/01 11:35:37;;;;;;;3.20;2.90;;;16.90;99.90;;;;;;5035875;28;20446;-39
2021/06/01 11:38:18;;;;;;;2.70;2.60;;;16.90;99.90;;;;;;5054063;28;20468;-39
2021/06/01 11:41:05;;;;;;;2.70;2.50;;;16.90;99.90;;;;;;5046840;28;20466;-39
2021/06/01 11:43:36;;;;;;;3.50;3.20;;;16.80;99.90;;;;;;5050307;28;21032;-40
2021/06/01 11:46:11;;;;;;;3.23;3.03;;;16.80;99.90;;;;;;5052863;28;20514;-40
2021/06/01 11:51:33;;;;;;;3.50;3.27;;;16.70;99.90;;;;;;5045869;28;20459;-40
2021/06/01 11:54:08;;;;;;;3.57;3.30;;;16.70;99.90;;;;;;5056571;28;20568;-39
2021/06/01 11:57:01;;;;;;;3.47;3.27;;;16.70;99.90;;;;;;5043772;28;20480;-39
2021/06/01 12:02:34;;;;;;;2.93;2.73;;;16.60;99.90;;;;;;5130869;27;20548;-39
2021/06/01 12:05:25;;;;;;;3.53;2.97;;;16.60;99.90;;;;;;5120128;28;20452;-40
2021/06/01 12:19:14;;;;;;;2.80;2.60;;;16.60;99.90;;;;;;5131553;27;20507;-38
2021/06/01 12:21:48;;;;;;;3.30;3.00;;;16.60;99.90;;;;;;5134247;27;20442;-40
2021/06/01 12:24:20;;;;;;;3.47;3.27;;;16.60;99.90;;;;;;5140644;27;20445;-38
2021/06/01 12:26:58;;;;;;;3.40;3.20;;;16.60;99.90;;;;;;5126548;27;20477;-40
2021/06/01 12:32:22;;;;;;;4.67;3.20;;;16.70;99.90;;;;;;5129573;27;21058;-40
2021/06/01 12:35:04;;;;;;;3.63;3.37;;;16.70;99.90;;;;;;5144504;27;20448;-40
2021/06/01 12:43:38;;;;;;;3.20;3.00;;;16.70;99.90;;;;;;5080171;28;20528;-40
2021/06/01 12:46:18;;;;;;;2.80;2.60;;;16.70;99.90;;;;;;5057879;28;20485;-39
2021/06/01 13:09:43;;;;;;;3.57;3.27;;;16.80;99.90;;;;;;4976933;28;20456;-39
2021/06/01 13:12:35;;;;;;;3.67;3.47;;;16.80;99.90;;;;;;4967012;28;20487;-40
2021/06/01 13:21:03;;;;;;;4.30;3.90;;;16.80;99.90;;;;;;5053970;28;20469;-40
2021/06/01 13:32:47;;;;;;;6.60;4.00;;;16.90;99.90;;;;;;5001258;28;20451;-40
2021/06/01 13:38:34;;;;;;;3.63;3.33;;;17.00;99.90;;;;;;4945192;29;20457;-39
2021/06/01 13:46:51;;;;;;;3.90;3.50;;;17.10;99.90;;;;;;5029517;28;20480;-40
2021/06/01 13:49:24;;;;;;;4.30;4.00;;;17.10;99.90;;;;;;5045259;28;20434;-41
2021/06/01 13:52:10;;;;;;;4.07;3.67;;;17.10;99.90;;;;;;5041470;28;20519;-40
2021/06/01 13:57:35;;;;;;;4.57;4.17;;;17.30;99.90;;;;;;5041227;28;20545;-42
2021/06/01 14:15:16;;;;;;;4.20;3.80;;;17.90;99.90;;;;;;5049977;27;20575;-39
2021/06/01 14:32:07;;;;;;;3.07;2.87;;;29.90;71.00;;;;;;5223518;27;20591;-33
2021/06/01 15:10:04;;;;;;;3.63;3.43;;;35.00;46.40;;;;;;5121223;28;20460;-35
2021/06/01 15:30:10;;;;;;;3.13;2.90;;;35.30;46.50;;;;;;5064161;28;20497;-34
2021/06/01 15:32:55;;;;;;;3.30;3.10;;;35.40;45.30;;;;;;5042168;28;20504;-34
2021/06/01 15:49:37;;;;;;;3.00;2.90;;;35.40;47.00;;;;;;5046387;28;20490;-34
2021/06/01 16:12:26;;;;;;;3.67;3.37;;;37.00;44.10;;;;;;5050125;28;20484;-34
2021/06/01 16:15:12;;;;;;;3.50;3.30;;;37.80;40.60;;;;;;5071075;28;20439;-33
2021/06/01 16:23:27;;;;;;;3.93;3.50;;;37.90;40.70;;;;;;5071256;28;20618;-33
2021/06/01 16:31:45;;;;;;;3.60;3.30;;;36.90;42.20;;;;;;5060754;28;20520;-33
2021/06/01 16:43:06;;;;;;;3.40;3.03;;;37.90;40.50;;;;;;5105056;28;20461;-32
2021/06/01 17:05:23;;;;;;;3.10;3.00;;;38.20;38.80;;;;;;5107352;28;20457;-33
2021/06/01 17:08:17;;;;;;;3.53;3.23;;;38.80;38.60;;;;;;5120116;28;20449;-33
2021/06/01 17:11:09;;;;;;;3.33;3.20;;;38.70;39.50;;;;;;5104029;28;20471;-33
2021/06/01 17:13:42;;;;;;;3.67;3.40;;;38.60;39.50;;;;;;5101610;28;20576;-33
2021/06/01 17:16:19;;;;;;;3.60;3.30;;;38.60;38.60;;;;;;5101061;28;20450;-33
2021/06/01 17:22:06;;;;;;;4.60;4.20;;;39.20;37.30;;;;;;5098176;28;20454;-33
2021/06/01 17:36:01;;;;;;;3.60;3.30;;;37.50;41.10;;;;;;5105374;28;20480;-32
2021/06/01 17:38:32;;;;;;;3.33;3.17;;;37.70;41.40;;;;;;5111773;28;20450;-32
2021/06/01 17:41:05;;;;;;;3.13;2.93;;;38.10;40.10;;;;;;5115229;27;20477;-32
2021/06/01 17:43:44;;;;;;;3.77;3.57;;;37.80;40.20;;;;;;5105010;28;20518;-33
2021/06/01 17:46:16;;;;;;;3.20;3.00;;;38.20;39.40;;;;;;5113952;28;20441;-33
2021/06/01 17:48:54;;;;;;;3.73;3.53;;;38.30;39.30;;;;;;5110613;28;20442;-32
2021/06/01 17:51:32;;;;;;;3.50;3.20;;;38.30;40.80;;;;;;5120974;28;20445;-32
2021/06/01 17:54:04;;;;;;;4.00;3.80;;;37.90;41.10;;;;;;5093099;28;20478;-32
2021/06/01 17:56:35;;;;;;;4.07;3.87;;;38.70;39.80;;;;;;5106748;28;20486;-34
2021/06/01 17:59:05;;;;;;;3.50;3.30;;;38.00;40.90;;;;;;5104658;28;20457;-32
2021/06/01 18:01:36;;;;;;;3.53;3.23;;;37.60;40.50;;;;;;5104517;28;20475;-32
2021/06/01 18:04:14;;;;;;;3.80;3.50;;;37.00;42.10;;;;;;5104284;28;20474;-32